sensor_id;sensor_type;location;lat;lon;timestamp;pressure;altitude;pressure_sealevel;temperature;humidity
21760;BME280;11041;50.854;20.580;2023-05-20T00:00:45;99729.09;;;11.63;100.00
21760;BME280;11041;50.854;20.580;2023-05-20T00:03:19;99729.53;;;11.70;100.00
21760;BME280;11041;50.854;20.580;2023-05-20T00:05:46;99722.41;;;11.69;100.00
21760;BME280;11041;50.854;20.580;2023-05-20T00:08:13;99718.63;;;11.65;100.00
21760;BME280;11041;50.854;20.580;2023-05-20T00:10:39;99726.25;;;11.68;100.00
21760;BME280;11041;50.854;20.580;2023-05-20T00:13:06;99723.00;;;11.66;100.00
21760;BME280;11041;50.854;20.580;2023-05-20T00:15:33;99738.31;;;11.72;100.00
21760;BME280;11041;50.854;20.580;2023-05-20T00:18:02;99724.13;;;11.65;100.00
21760;BME280;11041;50.854;20.580;2023-05-20T00:20:29;99725.75;;;11.66;100.00
21760;BME280;11041;50.854;20.580;2023-05-20T00:22:56;99734.00;;;11.66;100.00
21760;BME280;11041;50.854;20.580;2023-05-20T00:25:23;99722.50;;;11.64;100.00
21760;BME280;11041;50.854;20.580;2023-05-20T00:27:49;99721.53;;;11.55;100.00
21760;BME280;11041;50.854;20.580;2023-05-20T00:30:16;99716.38;;;11.48;100.00
21760;BME280;11041;50.854;20.580;2023-05-20T00:32:42;99725.16;;;11.50;100.00
21760;BME280;11041;50.854;20.580;2023-05-20T00:35:09;99712.31;;;11.46;100.00
21760;BME280;11041;50.854;20.580;2023-05-20T00:37:36;99714.75;;;11.47;100.00
21760;BME280;11041;50.854;20.580;2023-05-20T00:40:03;99727.84;;;11.56;100.00
21760;BME280;11041;50.854;20.580;2023-05-20T00:42:30;99711.69;;;11.49;100.00
21760;BME280;11041;50.854;20.580;2023-05-20T00:44:56;99705.38;;;11.48;100.00
21760;BME280;11041;50.854;20.580;2023-05-20T00:47:28;99720.72;;;11.55;100.00
21760;BME280;11041;50.854;20.580;2023-05-20T00:49:57;99710.28;;;11.51;100.00
21760;BME280;11041;50.854;20.580;2023-05-20T00:52:26;99709.63;;;11.60;100.00
21760;BME280;11041;50.854;20.580;2023-05-20T00:54:57;99706.88;;;11.60;100.00
21760;BME280;11041;50.854;20.580;2023-05-20T00:57:24;99710.72;;;11.59;100.00
21760;BME280;11041;50.854;20.580;2023-05-20T00:59:51;99705.44;;;11.62;100.00
21760;BME280;11041;50.854;20.580;2023-05-20T01:02:18;99696.44;;;11.57;100.00
21760;BME280;11041;50.854;20.580;2023-05-20T01:04:45;99705.00;;;11.55;100.00
21760;BME280;11041;50.854;20.580;2023-05-20T01:07:15;99702.88;;;11.52;100.00
21760;BME280;11041;50.854;20.580;2023-05-20T01:09:43;99695.19;;;11.49;100.00
21760;BME280;11041;50.854;20.580;2023-05-20T01:12:26;99693.75;;;11.51;100.00
21760;BME280;11041;50.854;20.580;2023-05-20T01:15:11;99689.16;;;11.47;100.00
21760;BME280;11041;50.854;20.580;2023-05-20T01:17:45;99700.13;;;11.52;100.00
21760;BME280;11041;50.854;20.580;2023-05-20T01:20:14;99701.66;;;11.58;100.00
21760;BME280;11041;50.854;20.580;2023-05-20T01:22:55;99700.91;;;11.52;100.00
21760;BME280;11041;50.854;20.580;2023-05-20T01:25:24;99697.66;;;11.50;100.00
21760;BME280;11041;50.854;20.580;2023-05-20T01:27:53;99696.31;;;11.48;100.00
21760;BME280;11041;50.854;20.580;2023-05-20T01:30:21;99701.50;;;11.49;100.00
21760;BME280;11041;50.854;20.580;2023-05-20T01:32:58;99692.13;;;11.50;100.00
21760;BME280;11041;50.854;20.580;2023-05-20T01:35:26;99693.56;;;11.48;100.00
21760;BME280;11041;50.854;20.580;2023-05-20T01:37:55;99702.03;;;11.51;100.00
21760;BME280;11041;50.854;20.580;2023-05-20T01:40:24;99702.03;;;11.51;100.00
21760;BME280;11041;50.854;20.580;2023-05-20T01:42:54;99697.72;;;11.45;100.00
21760;BME280;11041;50.854;20.580;2023-05-20T01:45:23;99710.28;;;11.51;100.00
21760;BME280;11041;50.854;20.580;2023-05-20T01:47:50;99710.50;;;11.55;100.00
21760;BME280;11041;50.854;20.580;2023-05-20T01:50:17;99710.81;;;11.54;100.00
21760;BME280;11041;50.854;20.580;2023-05-20T01:52:44;99707.84;;;11.50;100.00
21760;BME280;11041;50.854;20.580;2023-05-20T01:55:11;99710.50;;;11.55;100.00
21760;BME280;11041;50.854;20.580;2023-05-20T01:57:37;99702.25;;;11.55;100.00
21760;BME280;11041;50.854;20.580;2023-05-20T02:00:05;99691.53;;;11.54;100.00
21760;BME280;11041;50.854;20.580;2023-05-20T02:02:31;99695.09;;;11.54;100.00
21760;BME280;11041;50.854;20.580;2023-05-20T02:04:58;99705.53;;;11.57;100.00
21760;BME280;11041;50.854;20.580;2023-05-20T02:07:24;99686.63;;;11.50;100.00
21760;BME280;11041;50.854;20.580;2023-05-20T02:09:51;99696.00;;;11.49;100.00
21760;BME280;11041;50.854;20.580;2023-05-20T02:12:17;99697.41;;;11.47;100.00
21760;BME280;11041;50.854;20.580;2023-05-20T02:14:47;99696.06;;;11.44;100.00
21760;BME280;11041;50.854;20.580;2023-05-20T02:17:19;99695.25;;;11.44;100.00
21760;BME280;11041;50.854;20.580;2023-05-20T02:19:46;99700.75;;;11.44;100.00
21760;BME280;11041;50.854;20.580;2023-05-20T02:22:13;99699.72;;;11.40;100.00
21760;BME280;11041;50.854;20.580;2023-05-20T02:24:40;99689.56;;;11.40;100.00
21760;BME280;11041;50.854;20.580;2023-05-20T02:27:08;99699.94;;;11.43;100.00
21760;BME280;11041;50.854;20.580;2023-05-20T02:29:35;99697.41;;;11.47;100.00
21760;BME280;11041;50.854;20.580;2023-05-20T02:32:02;99694.44;;;11.43;100.00
21760;BME280;11041;50.854;20.580;2023-05-20T02:34:30;99683.16;;;11.45;100.00
21760;BME280;11041;50.854;20.580;2023-05-20T02:36:57;99684.53;;;11.42;100.00
21760;BME280;11041;50.854;20.580;2023-05-20T02:39:24;99688.72;;;11.40;100.00
21760;BME280;11041;50.854;20.580;2023-05-20T02:41:50;99695.94;;;11.36;100.00
21760;BME280;11041;50.854;20.580;2023-05-20T02:44:17;99695.94;;;11.36;100.00
21760;BME280;11041;50.854;20.580;2023-05-20T02:46:43;99696.31;;;11.29;100.00
21760;BME280;11041;50.854;20.580;2023-05-20T02:49:10;99700.59;;;11.35;100.00
21760;BME280;11041;50.854;20.580;2023-05-20T02:51:36;99698.69;;;11.36;100.00
21760;BME280;11041;50.854;20.580;2023-05-20T02:54:03;99694.59;;;11.33;100.00
21760;BME280;11041;50.854;20.580;2023-05-20T02:56:29;99695.19;;;11.30;100.00
21760;BME280;11041;50.854;20.580;2023-05-20T02:58:57;99699.25;;;11.33;100.00
21760;BME280;11041;50.854;20.580;2023-05-20T03:01:25;99697.81;;;11.40;100.00
21760;BME280;11041;50.854;20.580;2023-05-20T03:03:51;99700.25;;;11.42;100.00
21760;BME280;11041;50.854;20.580;2023-05-20T03:06:18;99685.94;;;11.40;100.00
21760;BME280;11041;50.854;20.580;2023-05-20T03:08:44;99690.34;;;11.41;100.00
21760;BME280;11041;50.854;20.580;2023-05-20T03:11:11;99696.31;;;11.48;100.00
21760;BME280;11041;50.854;20.580;2023-05-20T03:13:37;99700.69;;;11.49;100.00
21760;BME280;11041;50.854;20.580;2023-05-20T03:16:04;99700.91;;;11.52;100.00
21760;BME280;11041;50.854;20.580;2023-05-20T03:18:31;99696.84;;;11.50;100.00
21760;BME280;11041;50.854;20.580;2023-05-20T03:20:58;99692.94;;;11.51;100.00
21760;BME280;11041;50.854;20.580;2023-05-20T03:23:24;99701.44;;;11.55;100.00
21760;BME280;11041;50.854;20.580;2023-05-20T03:25:51;99705.53;;;11.57;100.00
21760;BME280;11041;50.854;20.580;2023-05-20T03:28:17;99712.59;;;11.63;100.00
21760;BME280;11041;50.854;20.580;2023-05-20T03:30:44;99716.75;;;11.61;100.00
21760;BME280;11041;50.854;20.580;2023-05-20T03:33:10;99713.72;;;11.62;100.00
21760;BME280;11041;50.854;20.580;2023-05-20T03:35:37;99722.69;;;11.68;100.00
21760;BME280;11041;50.854;20.580;2023-05-20T03:38:03;99723.22;;;11.70;100.00
21760;BME280;11041;50.854;20.580;2023-05-20T03:40:29;99726.25;;;11.68;100.00
21760;BME280;11041;50.854;20.580;2023-05-20T03:42:56;99731.69;;;11.73;100.00
21760;BME280;11041;50.854;20.580;2023-05-20T03:45:22;99722.84;;;11.77;100.00
21760;BME280;11041;50.854;20.580;2023-05-20T03:47:49;99726.41;;;11.77;100.00
21760;BME280;11041;50.854;20.580;2023-05-20T03:50:16;99720.38;;;11.75;100.00
21760;BME280;11041;50.854;20.580;2023-05-20T03:52:42;99723.88;;;11.81;100.00
21760;BME280;11041;50.854;20.580;2023-05-20T03:55:09;99725.72;;;11.85;100.00
21760;BME280;11041;50.854;20.580;2023-05-20T03:57:36;99712.84;;;11.81;100.00
21760;BME280;11041;50.854;20.580;2023-05-20T04:00:06;99730.69;;;11.88;100.00
21760;BME280;11041;50.854;20.580;2023-05-20T04:02:37;99725.19;;;11.83;100.00
21760;BME280;11041;50.854;20.580;2023-05-20T04:05:03;99726.56;;;11.86;100.00
21760;BME280;11041;50.854;20.580;2023-05-20T04:07:31;99727.94;;;11.88;100.00
21760;BME280;11041;50.854;20.580;2023-05-20T04:09:57;99735.22;;;11.98;100.00
21760;BME280;11041;50.854;20.580;2023-05-20T04:12:24;99724.19;;;11.98;100.00
21760;BME280;11041;50.854;20.580;2023-05-20T04:14:58;99739.50;;;12.04;100.00
21760;BME280;11041;50.854;20.580;2023-05-20T04:17:28;99727.88;;;12.07;100.00
21760;BME280;11041;50.854;20.580;2023-05-20T04:19:58;99742.41;;;12.13;100.00
21760;BME280;11041;50.854;20.580;2023-05-20T04:22:25;99737.94;;;12.17;100.00
21760;BME280;11041;50.854;20.580;2023-05-20T04:24:52;99728.25;;;12.20;100.00
21760;BME280;11041;50.854;20.580;2023-05-20T04:27:19;99731.09;;;12.28;100.00
21760;BME280;11041;50.854;20.580;2023-05-20T04:29:46;99728.06;;;12.30;100.00
21760;BME280;11041;50.854;20.580;2023-05-20T04:32:16;99724.91;;;12.36;100.00
21760;BME280;11041;50.854;20.580;2023-05-20T04:34:44;99717.47;;;12.37;100.00
21760;BME280;11041;50.854;20.580;2023-05-20T04:37:12;99721.25;;;12.41;100.00
21760;BME280;11041;50.854;20.580;2023-05-20T04:39:39;99714.50;;;12.47;100.00
21760;BME280;11041;50.854;20.580;2023-05-20T04:42:06;99726.47;;;12.56;100.00
21760;BME280;11041;50.854;20.580;2023-05-20T04:44:32;99725.75;;;12.65;100.00
21760;BME280;11041;50.854;20.580;2023-05-20T04:46:59;99719.84;;;12.71;100.00
21760;BME280;11041;50.854;20.580;2023-05-20T04:49:26;99724.25;;;12.72;100.00
21760;BME280;11041;50.854;20.580;2023-05-20T04:51:55;99720.53;;;12.77;100.00
21760;BME280;11041;50.854;20.580;2023-05-20T04:54:21;99715.75;;;12.83;100.00
21760;BME280;11041;50.854;20.580;2023-05-20T04:56:48;99727.19;;;12.76;100.00
21760;BME280;11041;50.854;20.580;2023-05-20T04:59:14;99721.50;;;12.72;100.00
21760;BME280;11041;50.854;20.580;2023-05-20T05:01:41;99710.66;;;12.76;100.00
21760;BME280;11041;50.854;20.580;2023-05-20T05:04:07;99719.53;;;12.87;100.00
21760;BME280;11041;50.854;20.580;2023-05-20T05:06:34;99732.09;;;12.93;100.00
21760;BME280;11041;50.854;20.580;2023-05-20T05:09:01;99725.78;;;12.92;100.00
21760;BME280;11041;50.854;20.580;2023-05-20T05:11:28;99730.03;;;12.98;100.00
21760;BME280;11041;50.854;20.580;2023-05-20T05:13:54;99720.03;;;13.03;100.00
21760;BME280;11041;50.854;20.580;2023-05-20T05:16:22;99724.13;;;13.05;100.00
21760;BME280;11041;50.854;20.580;2023-05-20T05:18:48;99726.66;;;13.15;100.00
21760;BME280;11041;50.854;20.580;2023-05-20T05:21:15;99737.00;;;13.10;100.00
21760;BME280;11041;50.854;20.580;2023-05-20T05:23:41;99731.28;;;13.06;100.00
21760;BME280;11041;50.854;20.580;2023-05-20T05:26:09;99736.19;;;13.09;100.00
21760;BME280;11041;50.854;20.580;2023-05-20T05:28:35;99735.16;;;13.19;100.00
21760;BME280;11041;50.854;20.580;2023-05-20T05:31:02;99736.09;;;13.28;100.00
21760;BME280;11041;50.854;20.580;2023-05-20T05:33:29;99735.88;;;13.38;100.00
21760;BME280;11041;50.854;20.580;2023-05-20T05:35:56;99735.13;;;13.47;100.00
21760;BME280;11041;50.854;20.580;2023-05-20T05:38:24;99733.25;;;13.56;100.00
21760;BME280;11041;50.854;20.580;2023-05-20T05:40:51;99730.72;;;13.59;100.00
21760;BME280;11041;50.854;20.580;2023-05-20T05:43:18;99730.72;;;13.59;100.00
21760;BME280;11041;50.854;20.580;2023-05-20T05:45:44;99742.75;;;13.63;99.70
21760;BME280;11041;50.854;20.580;2023-05-20T05:48:11;99731.41;;;13.65;99.32
21760;BME280;11041;50.854;20.580;2023-05-20T05:50:37;99737.31;;;13.72;99.67
21760;BME280;11041;50.854;20.580;2023-05-20T05:53:04;99732.72;;;13.68;98.58
21760;BME280;11041;50.854;20.580;2023-05-20T05:55:30;99738.25;;;13.68;97.35
21760;BME280;11041;50.854;20.580;2023-05-20T05:57:57;99738.53;;;13.66;97.06
21760;BME280;11041;50.854;20.580;2023-05-20T06:00:24;99743.06;;;13.62;96.83
21760;BME280;11041;50.854;20.580;2023-05-20T06:02:50;99749.72;;;13.61;96.37
21760;BME280;11041;50.854;20.580;2023-05-20T06:05:17;99750.22;;;13.63;96.75
21760;BME280;11041;50.854;20.580;2023-05-20T06:07:43;99745.22;;;13.65;95.91
21760;BME280;11041;50.854;20.580;2023-05-20T06:10:10;99731.28;;;13.70;96.43
21760;BME280;11041;50.854;20.580;2023-05-20T06:12:37;99724.66;;;13.71;95.72
21760;BME280;11041;50.854;20.580;2023-05-20T06:15:04;99728.22;;;13.72;94.85
21760;BME280;11041;50.854;20.580;2023-05-20T06:17:32;99732.41;;;13.69;95.19
21760;BME280;11041;50.854;20.580;2023-05-20T06:19:59;99731.78;;;13.72;95.51
21760;BME280;11041;50.854;20.580;2023-05-20T06:22:25;99733.91;;;13.75;95.75
21760;BME280;11041;50.854;20.580;2023-05-20T06:24:55;99727.66;;;13.83;95.70
21760;BME280;11041;50.854;20.580;2023-05-20T06:27:21;99725.66;;;13.98;95.95
21760;BME280;11041;50.854;20.580;2023-05-20T06:29:48;99722.13;;;14.06;95.23
21760;BME280;11041;50.854;20.580;2023-05-20T06:32:14;99728.22;;;14.17;94.82
21760;BME280;11041;50.854;20.580;2023-05-20T06:34:41;99722.09;;;14.28;95.00
21760;BME280;11041;50.854;20.580;2023-05-20T06:37:08;99727.41;;;14.47;95.06
21760;BME280;11041;50.854;20.580;2023-05-20T06:39:34;99727.66;;;14.60;94.99
21760;BME280;11041;50.854;20.580;2023-05-20T06:42:01;99725.44;;;14.70;93.04
21760;BME280;11041;50.854;20.580;2023-05-20T06:44:28;99726.94;;;14.77;92.86
21760;BME280;11041;50.854;20.580;2023-05-20T06:46:54;99725.94;;;14.73;91.39
21760;BME280;11041;50.854;20.580;2023-05-20T06:49:21;99735.41;;;14.80;92.04
21760;BME280;11041;50.854;20.580;2023-05-20T06:51:49;99737.38;;;14.80;91.32
21760;BME280;11041;50.854;20.580;2023-05-20T06:54:16;99732.28;;;14.73;90.70
21760;BME280;11041;50.854;20.580;2023-05-20T06:56:42;99745.78;;;14.66;91.38
21760;BME280;11041;50.854;20.580;2023-05-20T06:59:09;99740.06;;;14.62;91.80
21760;BME280;11041;50.854;20.580;2023-05-20T07:01:37;99743.66;;;14.63;92.32
21760;BME280;11041;50.854;20.580;2023-05-20T07:04:06;99735.34;;;14.63;92.20
21760;BME280;11041;50.854;20.580;2023-05-20T07:06:33;99744.50;;;14.72;92.75
21760;BME280;11041;50.854;20.580;2023-05-20T07:09:00;99730.31;;;14.65;92.17
21760;BME280;11041;50.854;20.580;2023-05-20T07:11:26;99730.38;;;14.51;92.40
21760;BME280;11041;50.854;20.580;2023-05-20T07:13:53;99727.38;;;14.39;93.24
21760;BME280;11041;50.854;20.580;2023-05-20T07:16:19;99725.38;;;14.31;94.37
21760;BME280;11041;50.854;20.580;2023-05-20T07:18:46;99728.34;;;14.34;94.88
21760;BME280;11041;50.854;20.580;2023-05-20T07:21:12;99727.03;;;14.40;95.29
21760;BME280;11041;50.854;20.580;2023-05-20T07:23:39;99730.28;;;14.34;94.68
21760;BME280;11041;50.854;20.580;2023-05-20T07:26:06;99728.34;;;14.43;95.40
21760;BME280;11041;50.854;20.580;2023-05-20T07:28:32;99722.72;;;14.48;95.85
21760;BME280;11041;50.854;20.580;2023-05-20T07:31:00;99730.38;;;14.51;95.76
21760;BME280;11041;50.854;20.580;2023-05-20T07:33:27;99731.78;;;14.62;96.13
21760;BME280;11041;50.854;20.580;2023-05-20T07:35:54;99733.59;;;14.76;95.70
21760;BME280;11041;50.854;20.580;2023-05-20T07:38:21;99738.19;;;14.80;94.83
21760;BME280;11041;50.854;20.580;2023-05-20T07:40:48;99740.50;;;14.87;95.00
21760;BME280;11041;50.854;20.580;2023-05-20T07:43:15;99733.16;;;14.91;94.58
21760;BME280;11041;50.854;20.580;2023-05-20T07:45:41;99736.72;;;14.83;93.80
21760;BME280;11041;50.854;20.580;2023-05-20T07:48:08;99745.53;;;14.85;94.37
21760;BME280;11041;50.854;20.580;2023-05-20T07:50:36;99736.72;;;14.83;93.83
21760;BME280;11041;50.854;20.580;2023-05-20T07:53:02;99740.75;;;14.77;93.75
21760;BME280;11041;50.854;20.580;2023-05-20T07:55:29;99744.16;;;14.74;93.69
21760;BME280;11041;50.854;20.580;2023-05-20T07:57:56;99732.38;;;14.59;94.50
21760;BME280;11041;50.854;20.580;2023-05-20T08:00:23;99734.19;;;14.55;94.79
21760;BME280;11041;50.854;20.580;2023-05-20T08:02:49;99730.78;;;14.58;95.52
21760;BME280;11041;50.854;20.580;2023-05-20T08:05:16;99724.84;;;14.51;95.75
21760;BME280;11041;50.854;20.580;2023-05-20T08:07:43;99721.28;;;14.51;95.85
21760;BME280;11041;50.854;20.580;2023-05-20T08:10:09;99719.88;;;14.62;96.09
21760;BME280;11041;50.854;20.580;2023-05-20T08:12:36;99714.75;;;14.78;96.52
21760;BME280;11041;50.854;20.580;2023-05-20T08:15:04;99714.13;;;14.89;96.19
21760;BME280;11041;50.854;20.580;2023-05-20T08:17:32;99710.59;;;15.06;96.23
21760;BME280;11041;50.854;20.580;2023-05-20T08:19:59;99715.19;;;15.20;95.35
21760;BME280;11041;50.854;20.580;2023-05-20T08:22:26;99707.88;;;15.24;94.14
21760;BME280;11041;50.854;20.580;2023-05-20T08:24:52;99712.13;;;15.39;93.96
21760;BME280;11041;50.854;20.580;2023-05-20T08:27:19;99715.56;;;15.44;93.22
21760;BME280;11041;50.854;20.580;2023-05-20T08:29:45;99707.91;;;15.50;92.85
21760;BME280;11041;50.854;20.580;2023-05-20T08:32:12;99713.78;;;15.66;92.54
21760;BME280;11041;50.854;20.580;2023-05-20T08:34:38;99715.59;;;15.70;91.10
21760;BME280;11041;50.854;20.580;2023-05-20T08:37:05;99707.44;;;15.74;91.91
21760;BME280;11041;50.854;20.580;2023-05-20T08:39:31;99707.94;;;15.93;92.01
21760;BME280;11041;50.854;20.580;2023-05-20T08:41:58;99714.28;;;16.03;90.81
21760;BME280;11041;50.854;20.580;2023-05-20T08:44:26;99695.84;;;16.07;90.92
21760;BME280;11041;50.854;20.580;2023-05-20T08:46:55;99706.06;;;16.32;90.92
21760;BME280;11041;50.854;20.580;2023-05-20T08:49:22;99700.94;;;16.52;90.98
21760;BME280;11041;50.854;20.580;2023-05-20T08:51:48;99702.03;;;16.68;90.91
21760;BME280;11041;50.854;20.580;2023-05-20T08:54:16;99697.09;;;16.74;86.67
21760;BME280;11041;50.854;20.580;2023-05-20T08:56:46;99684.09;;;16.57;86.17
21760;BME280;11041;50.854;20.580;2023-05-20T08:59:12;99696.69;;;16.54;88.70
21760;BME280;11041;50.854;20.580;2023-05-20T09:01:43;99680.28;;;16.40;87.13
21760;BME280;11041;50.854;20.580;2023-05-20T09:04:10;99689.03;;;16.51;88.62
21760;BME280;11041;50.854;20.580;2023-05-20T09:06:46;99683.81;;;16.50;88.41
21760;BME280;11041;50.854;20.580;2023-05-20T09:09:13;99681.22;;;16.45;87.77
21760;BME280;11041;50.854;20.580;2023-05-20T09:11:41;99683.00;;;16.49;87.70
21760;BME280;11041;50.854;20.580;2023-05-20T09:14:08;99680.72;;;16.51;88.64
21760;BME280;11041;50.854;20.580;2023-05-20T09:16:35;99676.94;;;16.56;89.12
21760;BME280;11041;50.854;20.580;2023-05-20T09:19:05;99670.25;;;16.57;87.91
21760;BME280;11041;50.854;20.580;2023-05-20T09:21:34;99681.31;;;16.66;88.22
21760;BME280;11041;50.854;20.580;2023-05-20T09:24:01;99681.47;;;16.69;88.76
21760;BME280;11041;50.854;20.580;2023-05-20T09:26:28;99686.59;;;16.88;89.07
21760;BME280;11041;50.854;20.580;2023-05-20T09:28:59;99683.97;;;17.00;87.69
21760;BME280;11041;50.854;20.580;2023-05-20T09:31:27;99694.16;;;17.17;87.82
21760;BME280;11041;50.854;20.580;2023-05-20T09:33:56;99682.56;;;17.15;86.10
21760;BME280;11041;50.854;20.580;2023-05-20T09:36:27;99693.59;;;17.24;87.63
21760;BME280;11041;50.854;20.580;2023-05-20T09:39:02;99680.41;;;17.42;88.08
21760;BME280;11041;50.854;20.580;2023-05-20T09:41:48;99672.00;;;17.51;86.17
21760;BME280;11041;50.854;20.580;2023-05-20T09:44:16;99679.59;;;17.62;87.75
21760;BME280;11041;50.854;20.580;2023-05-20T09:46:45;99675.31;;;17.65;87.16
21760;BME280;11041;50.854;20.580;2023-05-20T09:49:13;99677.28;;;17.64;85.77
21760;BME280;11041;50.854;20.580;2023-05-20T09:51:42;99676.25;;;17.69;86.11
21760;BME280;11041;50.854;20.580;2023-05-20T09:54:12;99684.88;;;17.76;83.97
21760;BME280;11041;50.854;20.580;2023-05-20T09:56:41;99671.19;;;17.71;86.52
21760;BME280;11041;50.854;20.580;2023-05-20T09:59:09;99676.88;;;17.96;87.88
21760;BME280;11041;50.854;20.580;2023-05-20T10:01:37;99666.06;;;17.94;86.28
21760;BME280;11041;50.854;20.580;2023-05-20T10:04:06;99668.13;;;18.18;85.98
21760;BME280;11041;50.854;20.580;2023-05-20T10:10:05;99666.69;;;18.58;86.74
21760;BME280;11041;50.854;20.580;2023-05-20T10:22:04;99658.38;;;18.82;84.78
21760;BME280;11041;50.854;20.580;2023-05-20T10:24:38;99657.56;;;18.94;83.32
21760;BME280;11041;50.854;20.580;2023-05-20T10:27:13;99647.22;;;18.70;81.26
21760;BME280;11041;50.854;20.580;2023-05-20T10:29:56;99650.56;;;18.51;83.32
21760;BME280;11041;50.854;20.580;2023-05-20T10:32:28;99640.34;;;18.30;84.13
21760;BME280;11041;50.854;20.580;2023-05-20T10:35:06;99644.63;;;18.28;84.21
21760;BME280;11041;50.854;20.580;2023-05-20T10:37:44;99644.44;;;18.45;86.55
21760;BME280;11041;50.854;20.580;2023-05-20T10:40:15;99633.63;;;18.56;85.03
21760;BME280;11041;50.854;20.580;2023-05-20T10:42:43;99643.06;;;18.88;86.31
21760;BME280;11041;50.854;20.580;2023-05-20T10:45:11;99645.34;;;19.11;84.51
21760;BME280;11041;50.854;20.580;2023-05-20T10:47:57;99646.22;;;19.40;84.60
21760;BME280;11041;50.854;20.580;2023-05-20T10:50:34;99644.78;;;19.58;82.70
21760;BME280;11041;50.854;20.580;2023-05-20T10:53:14;99645.56;;;19.71;82.06
21760;BME280;11041;50.854;20.580;2023-05-20T10:55:48;99646.16;;;19.64;78.82
21760;BME280;11041;50.854;20.580;2023-05-20T10:58:18;99632.59;;;19.50;79.95
21760;BME280;11041;50.854;20.580;2023-05-20T11:00:47;99640.66;;;19.40;80.06
21760;BME280;11041;50.854;20.580;2023-05-20T11:03:16;99625.34;;;19.33;80.11
21760;BME280;11041;50.854;20.580;2023-05-20T11:05:46;99620.72;;;19.25;80.52
21760;BME280;11041;50.854;20.580;2023-05-20T11:08:13;99628.78;;;19.43;81.90
21760;BME280;11041;50.854;20.580;2023-05-20T11:10:41;99626.22;;;19.50;80.66
21760;BME280;11041;50.854;20.580;2023-05-20T11:13:12;99603.41;;;19.60;79.43
21760;BME280;11041;50.854;20.580;2023-05-20T11:15:41;99611.41;;;19.74;80.50
21760;BME280;11041;50.854;20.580;2023-05-20T11:18:10;99598.66;;;19.89;80.16
21760;BME280;11041;50.854;20.580;2023-05-20T11:20:38;99608.13;;;20.00;79.80
21760;BME280;11041;50.854;20.580;2023-05-20T11:23:10;99599.69;;;20.12;79.35
21760;BME280;11041;50.854;20.580;2023-05-20T11:25:38;99596.53;;;20.30;80.43
21760;BME280;11041;50.854;20.580;2023-05-20T11:28:12;99591.59;;;20.39;76.90
21760;BME280;11041;50.854;20.580;2023-05-20T11:30:44;99589.88;;;20.34;76.55
21760;BME280;11041;50.854;20.580;2023-05-20T11:33:13;99593.47;;;20.19;76.50
21760;BME280;11041;50.854;20.580;2023-05-20T11:35:53;99595.91;;;20.20;77.28
21760;BME280;11041;50.854;20.580;2023-05-20T11:38:21;99579.88;;;20.33;78.48
21760;BME280;11041;50.854;20.580;2023-05-20T11:40:55;99585.91;;;20.67;78.12
21760;BME280;11041;50.854;20.580;2023-05-20T11:43:22;99574.88;;;20.90;77.93
21760;BME280;11041;50.854;20.580;2023-05-20T11:45:57;99585.81;;;21.15;76.95
21760;BME280;11041;50.854;20.580;2023-05-20T11:48:27;99585.50;;;21.20;73.45
21760;BME280;11041;50.854;20.580;2023-05-20T11:50:56;99579.78;;;21.13;73.34
21760;BME280;11041;50.854;20.580;2023-05-20T11:53:23;99573.72;;;21.11;75.38
21760;BME280;11041;50.854;20.580;2023-05-20T11:55:59;99572.13;;;21.10;74.69
21760;BME280;11041;50.854;20.580;2023-05-20T11:58:30;99577.94;;;21.20;74.46
21760;BME280;11041;50.854;20.580;2023-05-20T12:00:57;99575.28;;;21.08;72.35
21760;BME280;11041;50.854;20.580;2023-05-20T12:03:24;99568.16;;;21.11;74.44
21760;BME280;11041;50.854;20.580;2023-05-20T12:05:52;99557.56;;;21.20;76.51
21760;BME280;11041;50.854;20.580;2023-05-20T12:08:18;99569.94;;;21.38;74.52
21760;BME280;11041;50.854;20.580;2023-05-20T12:10:45;99553.97;;;21.39;73.15
21760;BME280;11041;50.854;20.580;2023-05-20T12:13:11;99546.41;;;21.39;71.71
21760;BME280;11041;50.854;20.580;2023-05-20T12:15:39;99550.59;;;21.49;72.81
21760;BME280;11041;50.854;20.580;2023-05-20T12:18:06;99544.03;;;21.61;73.61
21760;BME280;11041;50.854;20.580;2023-05-20T12:20:33;99532.53;;;21.66;70.42
21760;BME280;11041;50.854;20.580;2023-05-20T12:23:00;99535.06;;;21.52;70.26
21760;BME280;11041;50.854;20.580;2023-05-20T12:25:28;99527.19;;;21.57;70.94
21760;BME280;11041;50.854;20.580;2023-05-20T12:27:55;99527.88;;;21.74;72.16
21760;BME280;11041;50.854;20.580;2023-05-20T12:30:23;99529.06;;;21.96;71.93
21760;BME280;11041;50.854;20.580;2023-05-20T12:32:50;99522.00;;;22.02;69.62
21760;BME280;11041;50.854;20.580;2023-05-20T12:35:24;99529.91;;;21.96;67.85
21760;BME280;11041;50.854;20.580;2023-05-20T12:37:52;99520.44;;;21.81;67.95
21760;BME280;11041;50.854;20.580;2023-05-20T12:40:19;99514.84;;;21.81;68.00
21760;BME280;11041;50.854;20.580;2023-05-20T12:42:45;99518.28;;;21.94;67.71
21760;BME280;11041;50.854;20.580;2023-05-20T12:45:12;99517.97;;;22.22;68.16
21760;BME280;11041;50.854;20.580;2023-05-20T12:47:38;99523.78;;;22.37;66.42
21760;BME280;11041;50.854;20.580;2023-05-20T12:50:05;99506.47;;;22.54;67.31
21760;BME280;11041;50.854;20.580;2023-05-20T12:52:32;99509.38;;;22.61;65.39
21760;BME280;11041;50.854;20.580;2023-05-20T12:54:58;99512.22;;;22.65;65.90
21760;BME280;11041;50.854;20.580;2023-05-20T12:57:25;99509.88;;;22.70;63.33
21760;BME280;11041;50.854;20.580;2023-05-20T12:59:52;99515.19;;;22.49;63.71
21760;BME280;11041;50.854;20.580;2023-05-20T13:02:19;99512.66;;;22.40;64.17